sensor_id;sensor_type;location;lat;lon;timestamp;temperature;humidity
44863;DHT22;30597;49.628;10.850;2022-09-03T00:01:17;23.60;48.30
44863;DHT22;30597;49.628;10.850;2022-09-03T00:03:51;23.60;48.30
44863;DHT22;30597;49.628;10.850;2022-09-03T00:06:30;23.70;48.40
44863;DHT22;30597;49.628;10.850;2022-09-03T00:09:04;23.70;48.40
44863;DHT22;30597;49.628;10.850;2022-09-03T00:11:52;23.70;48.40
44863;DHT22;30597;49.628;10.850;2022-09-03T00:14:26;23.60;48.30
44863;DHT22;30597;49.628;10.850;2022-09-03T00:17:10;23.60;48.40
44863;DHT22;30597;49.628;10.850;2022-09-03T00:19:43;23.70;48.60
44863;DHT22;30597;49.628;10.850;2022-09-03T00:22:18;23.60;48.50
44863;DHT22;30597;49.628;10.850;2022-09-03T00:24:46;23.60;48.60
44863;DHT22;30597;49.628;10.850;2022-09-03T00:27:16;23.60;48.60
44863;DHT22;30597;49.628;10.850;2022-09-03T00:35:53;23.70;48.80
44863;DHT22;30597;49.628;10.850;2022-09-03T00:38:20;23.60;48.90
44863;DHT22;30597;49.628;10.850;2022-09-03T00:40:55;23.60;49.00
44863;DHT22;30597;49.628;10.850;2022-09-03T00:49:23;23.60;49.10
44863;DHT22;30597;49.628;10.850;2022-09-03T00:54:56;23.60;49.30
44863;DHT22;30597;49.628;10.850;2022-09-03T00:58:09;23.60;49.20
44863;DHT22;30597;49.628;10.850;2022-09-03T01:00:38;23.50;49.50
44863;DHT22;30597;49.628;10.850;2022-09-03T01:03:16;23.40;49.50
44863;DHT22;30597;49.628;10.850;2022-09-03T01:14:07;23.40;49.80
44863;DHT22;30597;49.628;10.850;2022-09-03T01:17:02;23.40;49.80
44863;DHT22;30597;49.628;10.850;2022-09-03T01:22:30;23.40;50.00
44863;DHT22;30597;49.628;10.850;2022-09-03T01:30:13;23.40;50.00
44863;DHT22;30597;49.628;10.850;2022-09-03T01:33:11;23.40;50.00
44863;DHT22;30597;49.628;10.850;2022-09-03T01:35:48;23.40;50.10
44863;DHT22;30597;49.628;10.850;2022-09-03T01:38:30;23.40;50.20
44863;DHT22;30597;49.628;10.850;2022-09-03T01:41:12;23.40;50.40
44863;DHT22;30597;49.628;10.850;2022-09-03T01:45:14;23.40;50.50
44863;DHT22;30597;49.628;10.850;2022-09-03T01:47:21;23.40;50.60
44863;DHT22;30597;49.628;10.850;2022-09-03T01:50:13;23.40;51.00
44863;DHT22;30597;49.628;10.850;2022-09-03T01:52:49;23.30;51.00
44863;DHT22;30597;49.628;10.850;2022-09-03T01:56:05;23.30;50.90
44863;DHT22;30597;49.628;10.850;2022-09-03T01:58:31;23.40;51.00
44863;DHT22;30597;49.628;10.850;2022-09-03T02:01:05;23.30;51.10
44863;DHT22;30597;49.628;10.850;2022-09-03T02:03:37;23.30;51.30
44863;DHT22;30597;49.628;10.850;2022-09-03T02:06:06;23.40;51.30
44863;DHT22;30597;49.628;10.850;2022-09-03T02:08:32;23.30;51.30
44863;DHT22;30597;49.628;10.850;2022-09-03T02:10:58;23.30;51.20
44863;DHT22;30597;49.628;10.850;2022-09-03T02:13:35;23.30;51.40
44863;DHT22;30597;49.628;10.850;2022-09-03T02:16:09;23.30;51.40
44863;DHT22;30597;49.628;10.850;2022-09-03T02:18:38;23.30;51.40
44863;DHT22;30597;49.628;10.850;2022-09-03T02:21:06;23.40;51.40
44863;DHT22;30597;49.628;10.850;2022-09-03T02:23:32;23.30;51.30
44863;DHT22;30597;49.628;10.850;2022-09-03T02:26:00;23.30;51.30
44863;DHT22;30597;49.628;10.850;2022-09-03T02:28:30;23.30;51.30
44863;DHT22;30597;49.628;10.850;2022-09-03T02:30:56;23.30;51.30
44863;DHT22;30597;49.628;10.850;2022-09-03T02:33:22;23.30;51.20
44863;DHT22;30597;49.628;10.850;2022-09-03T02:35:48;23.30;51.20
44863;DHT22;30597;49.628;10.850;2022-09-03T02:38:19;23.30;51.20
44863;DHT22;30597;49.628;10.850;2022-09-03T02:40:45;23.30;51.10
44863;DHT22;30597;49.628;10.850;2022-09-03T02:43:19;23.30;51.80
44863;DHT22;30597;49.628;10.850;2022-09-03T02:45:47;23.30;51.20
44863;DHT22;30597;49.628;10.850;2022-09-03T02:48:17;23.30;51.40
44863;DHT22;30597;49.628;10.850;2022-09-03T02:50:45;23.30;51.30
44863;DHT22;30597;49.628;10.850;2022-09-03T02:53:11;23.30;51.30
44863;DHT22;30597;49.628;10.850;2022-09-03T02:55:36;23.30;51.30
44863;DHT22;30597;49.628;10.850;2022-09-03T02:58:02;23.30;51.30
44863;DHT22;30597;49.628;10.850;2022-09-03T03:00:30;23.30;51.30
44863;DHT22;30597;49.628;10.850;2022-09-03T03:02:55;23.30;51.30
44863;DHT22;30597;49.628;10.850;2022-09-03T03:05:26;23.30;51.30
44863;DHT22;30597;49.628;10.850;2022-09-03T03:07:54;23.20;51.30
44863;DHT22;30597;49.628;10.850;2022-09-03T03:10:22;23.20;51.30
44863;DHT22;30597;49.628;10.850;2022-09-03T03:12:48;23.30;51.40
44863;DHT22;30597;49.628;10.850;2022-09-03T03:15:13;23.30;51.40
44863;DHT22;30597;49.628;10.850;2022-09-03T03:17:39;23.30;51.40
44863;DHT22;30597;49.628;10.850;2022-09-03T03:20:05;23.20;51.30
44863;DHT22;30597;49.628;10.850;2022-09-03T03:22:31;23.20;51.40
44863;DHT22;30597;49.628;10.850;2022-09-03T03:24:57;23.20;51.30
44863;DHT22;30597;49.628;10.850;2022-09-03T03:27:22;23.20;51.40
44863;DHT22;30597;49.628;10.850;2022-09-03T03:29:48;23.20;51.30
44863;DHT22;30597;49.628;10.850;2022-09-03T03:32:15;23.20;51.30
44863;DHT22;30597;49.628;10.850;2022-09-03T03:34:40;23.20;51.40
44863;DHT22;30597;49.628;10.850;2022-09-03T03:37:06;23.10;51.30
44863;DHT22;30597;49.628;10.850;2022-09-03T03:39:31;23.10;51.30
44863;DHT22;30597;49.628;10.850;2022-09-03T03:41:57;23.10;51.30
44863;DHT22;30597;49.628;10.850;2022-09-03T03:44:22;23.20;51.40
44863;DHT22;30597;49.628;10.850;2022-09-03T03:46:48;23.10;51.30
44863;DHT22;30597;49.628;10.850;2022-09-03T03:49:13;23.20;51.40
44863;DHT22;30597;49.628;10.850;2022-09-03T03:51:39;23.10;51.30
44863;DHT22;30597;49.628;10.850;2022-09-03T03:54:05;23.10;51.30
44863;DHT22;30597;49.628;10.850;2022-09-03T03:56:31;23.10;51.30
44863;DHT22;30597;49.628;10.850;2022-09-03T03:58:58;23.10;51.40
44863;DHT22;30597;49.628;10.850;2022-09-03T04:01:25;23.10;51.40
44863;DHT22;30597;49.628;10.850;2022-09-03T04:03:53;23.10;51.50
44863;DHT22;30597;49.628;10.850;2022-09-03T04:06:20;23.10;51.70
44863;DHT22;30597;49.628;10.850;2022-09-03T04:08:46;23.10;51.70
44863;DHT22;30597;49.628;10.850;2022-09-03T04:11:15;23.10;51.60
44863;DHT22;30597;49.628;10.850;2022-09-03T04:13:42;23.10;51.70
44863;DHT22;30597;49.628;10.850;2022-09-03T04:16:11;23.10;51.70
44863;DHT22;30597;49.628;10.850;2022-09-03T04:18:37;23.00;51.80
44863;DHT22;30597;49.628;10.850;2022-09-03T04:21:13;23.00;51.70
44863;DHT22;30597;49.628;10.850;2022-09-03T04:23:41;23.00;51.70
44863;DHT22;30597;49.628;10.850;2022-09-03T04:26:09;23.00;51.70
44863;DHT22;30597;49.628;10.850;2022-09-03T04:28:35;23.10;51.90
44863;DHT22;30597;49.628;10.850;2022-09-03T04:31:02;23.10;51.80
44863;DHT22;30597;49.628;10.850;2022-09-03T04:33:28;23.10;51.70
44863;DHT22;30597;49.628;10.850;2022-09-03T04:36:02;23.10;51.80
44863;DHT22;30597;49.628;10.850;2022-09-03T04:38:28;23.10;51.70
44863;DHT22;30597;49.628;10.850;2022-09-03T04:40:54;23.10;51.70
44863;DHT22;30597;49.628;10.850;2022-09-03T04:43:19;23.10;51.70
44863;DHT22;30597;49.628;10.850;2022-09-03T04:45:45;23.10;51.70
44863;DHT22;30597;49.628;10.850;2022-09-03T04:48:10;23.10;51.80
44863;DHT22;30597;49.628;10.850;2022-09-03T04:50:37;23.00;51.80
44863;DHT22;30597;49.628;10.850;2022-09-03T04:53:04;23.00;51.80
44863;DHT22;30597;49.628;10.850;2022-09-03T04:55:34;23.00;51.80
44863;DHT22;30597;49.628;10.850;2022-09-03T04:58:00;23.00;51.80
44863;DHT22;30597;49.628;10.850;2022-09-03T05:00:26;23.00;51.80
44863;DHT22;30597;49.628;10.850;2022-09-03T05:02:51;23.00;51.90
44863;DHT22;30597;49.628;10.850;2022-09-03T05:05:17;23.00;52.10
44863;DHT22;30597;49.628;10.850;2022-09-03T05:07:43;22.90;52.00
44863;DHT22;30597;49.628;10.850;2022-09-03T05:10:10;23.00;52.10
44863;DHT22;30597;49.628;10.850;2022-09-03T05:12:45;22.90;52.00
44863;DHT22;30597;49.628;10.850;2022-09-03T05:15:12;23.00;52.10
44863;DHT22;30597;49.628;10.850;2022-09-03T05:17:38;23.00;52.10
44863;DHT22;30597;49.628;10.850;2022-09-03T05:20:04;22.90;51.90
44863;DHT22;30597;49.628;10.850;2022-09-03T05:22:33;23.00;52.00
44863;DHT22;30597;49.628;10.850;2022-09-03T05:24:59;23.00;51.70
44863;DHT22;30597;49.628;10.850;2022-09-03T05:27:24;22.90;49.50
44863;DHT22;30597;49.628;10.850;2022-09-03T05:29:50;23.00;48.50
44863;DHT22;30597;49.628;10.850;2022-09-03T05:32:15;23.00;47.70
44863;DHT22;30597;49.628;10.850;2022-09-03T05:34:42;23.00;46.40
44863;DHT22;30597;49.628;10.850;2022-09-03T05:37:08;23.00;45.60
44863;DHT22;30597;49.628;10.850;2022-09-03T05:39:34;23.00;44.80
44863;DHT22;30597;49.628;10.850;2022-09-03T05:41:59;23.00;44.30
44863;DHT22;30597;49.628;10.850;2022-09-03T05:44:25;23.10;43.80
44863;DHT22;30597;49.628;10.850;2022-09-03T05:46:50;23.10;43.40
44863;DHT22;30597;49.628;10.850;2022-09-03T05:49:17;23.10;42.70
44863;DHT22;30597;49.628;10.850;2022-09-03T05:51:43;23.10;43.10
44863;DHT22;30597;49.628;10.850;2022-09-03T05:57:30;23.10;41.90
44863;DHT22;30597;49.628;10.850;2022-09-03T05:59:56;23.10;41.70
44863;DHT22;30597;49.628;10.850;2022-09-03T06:02:22;23.10;41.70
44863;DHT22;30597;49.628;10.850;2022-09-03T06:04:47;23.10;41.50
44863;DHT22;30597;49.628;10.850;2022-09-03T06:07:13;23.10;41.40
44863;DHT22;30597;49.628;10.850;2022-09-03T06:09:39;23.00;41.10
44863;DHT22;30597;49.628;10.850;2022-09-03T06:12:06;23.00;41.10
44863;DHT22;30597;49.628;10.850;2022-09-03T06:14:31;23.00;41.40
44863;DHT22;30597;49.628;10.850;2022-09-03T06:16:57;23.10;41.40
44863;DHT22;30597;49.628;10.850;2022-09-03T06:19:22;23.10;41.20
44863;DHT22;30597;49.628;10.850;2022-09-03T06:21:48;23.10;41.00
44863;DHT22;30597;49.628;10.850;2022-09-03T06:24:19;23.10;40.70
44863;DHT22;30597;49.628;10.850;2022-09-03T06:26:47;23.10;40.20
44863;DHT22;30597;49.628;10.850;2022-09-03T06:29:13;23.00;39.90
44863;DHT22;30597;49.628;10.850;2022-09-03T06:31:39;23.00;39.80
44863;DHT22;30597;49.628;10.850;2022-09-03T06:34:05;23.00;39.60
44863;DHT22;30597;49.628;10.850;2022-09-03T06:36:31;23.00;39.40
44863;DHT22;30597;49.628;10.850;2022-09-03T06:38:57;23.00;39.70
44863;DHT22;30597;49.628;10.850;2022-09-03T06:41:25;23.00;40.00
44863;DHT22;30597;49.628;10.850;2022-09-03T06:43:57;22.90;40.30
44863;DHT22;30597;49.628;10.850;2022-09-03T06:46:30;22.90;40.80
44863;DHT22;30597;49.628;10.850;2022-09-03T06:48:56;22.80;41.00
44863;DHT22;30597;49.628;10.850;2022-09-03T06:51:24;22.80;41.20
44863;DHT22;30597;49.628;10.850;2022-09-03T06:53:52;22.80;41.40
44863;DHT22;30597;49.628;10.850;2022-09-03T06:56:20;22.80;41.60
44863;DHT22;30597;49.628;10.850;2022-09-03T06:58:53;22.80;41.80
44863;DHT22;30597;49.628;10.850;2022-09-03T07:01:27;22.70;41.90
44863;DHT22;30597;49.628;10.850;2022-09-03T07:03:57;22.80;42.10
44863;DHT22;30597;49.628;10.850;2022-09-03T07:06:25;22.80;42.20
44863;DHT22;30597;49.628;10.850;2022-09-03T07:08:51;22.80;42.90
44863;DHT22;30597;49.628;10.850;2022-09-03T07:11:19;22.80;42.40
44863;DHT22;30597;49.628;10.850;2022-09-03T07:13:48;22.80;42.40
44863;DHT22;30597;49.628;10.850;2022-09-03T07:16:19;22.80;42.60
44863;DHT22;30597;49.628;10.850;2022-09-03T07:18:45;22.80;42.60
44863;DHT22;30597;49.628;10.850;2022-09-03T07:21:16;22.80;42.70
44863;DHT22;30597;49.628;10.850;2022-09-03T07:23:43;22.80;42.80
44863;DHT22;30597;49.628;10.850;2022-09-03T07:26:15;22.80;42.90
44863;DHT22;30597;49.628;10.850;2022-09-03T07:28:41;22.80;42.90
44863;DHT22;30597;49.628;10.850;2022-09-03T07:31:09;22.80;43.00
44863;DHT22;30597;49.628;10.850;2022-09-03T07:33:36;22.90;42.80
44863;DHT22;30597;49.628;10.850;2022-09-03T07:36:07;22.90;42.10
44863;DHT22;30597;49.628;10.850;2022-09-03T07:38:34;22.90;41.90
44863;DHT22;30597;49.628;10.850;2022-09-03T07:41:02;22.90;42.00
44863;DHT22;30597;49.628;10.850;2022-09-03T07:43:32;22.90;41.80
44863;DHT22;30597;49.628;10.850;2022-09-03T07:45:58;22.90;41.50
44863;DHT22;30597;49.628;10.850;2022-09-03T07:48:23;22.90;41.20
44863;DHT22;30597;49.628;10.850;2022-09-03T07:50:49;23.00;41.10
44863;DHT22;30597;49.628;10.850;2022-09-03T07:53:15;23.00;41.10
44863;DHT22;30597;49.628;10.850;2022-09-03T07:55:42;23.00;41.30
44863;DHT22;30597;49.628;10.850;2022-09-03T07:58:08;22.90;41.30
44863;DHT22;30597;49.628;10.850;2022-09-03T08:00:38;23.00;41.40
44863;DHT22;30597;49.628;10.850;2022-09-03T08:03:04;23.00;41.00
44863;DHT22;30597;49.628;10.850;2022-09-03T08:05:34;23.00;41.20
44863;DHT22;30597;49.628;10.850;2022-09-03T08:08:01;22.90;41.20
44863;DHT22;30597;49.628;10.850;2022-09-03T08:10:27;22.90;41.50
44863;DHT22;30597;49.628;10.850;2022-09-03T08:12:56;22.90;41.60
44863;DHT22;30597;49.628;10.850;2022-09-03T08:15:22;22.90;41.70
44863;DHT22;30597;49.628;10.850;2022-09-03T08:17:48;22.90;41.70
44863;DHT22;30597;49.628;10.850;2022-09-03T08:20:14;23.00;41.80
44863;DHT22;30597;49.628;10.850;2022-09-03T08:22:39;23.00;42.00
44863;DHT22;30597;49.628;10.850;2022-09-03T08:25:06;23.00;42.00
44863;DHT22;30597;49.628;10.850;2022-09-03T08:27:32;23.00;42.10
44863;DHT22;30597;49.628;10.850;2022-09-03T08:29:57;23.00;42.10
44863;DHT22;30597;49.628;10.850;2022-09-03T08:32:23;23.00;42.20
44863;DHT22;30597;49.628;10.850;2022-09-03T08:34:48;23.00;42.30
44863;DHT22;30597;49.628;10.850;2022-09-03T08:37:16;23.00;42.30
44863;DHT22;30597;49.628;10.850;2022-09-03T08:39:43;23.00;42.40
44863;DHT22;30597;49.628;10.850;2022-09-03T08:42:20;23.00;42.50
44863;DHT22;30597;49.628;10.850;2022-09-03T08:44:55;23.00;42.40
44863;DHT22;30597;49.628;10.850;2022-09-03T08:50:27;23.10;42.60
44863;DHT22;30597;49.628;10.850;2022-09-03T08:55:54;23.10;42.70
44863;DHT22;30597;49.628;10.850;2022-09-03T08:58:32;23.10;42.80
44863;DHT22;30597;49.628;10.850;2022-09-03T09:06:13;23.10;42.80
44863;DHT22;30597;49.628;10.850;2022-09-03T09:09:01;23.10;42.90
44863;DHT22;30597;49.628;10.850;2022-09-03T09:11:45;23.10;43.50
44863;DHT22;30597;49.628;10.850;2022-09-03T09:14:22;23.00;43.00
44863;DHT22;30597;49.628;10.850;2022-09-03T09:19:38;23.10;43.10
44863;DHT22;30597;49.628;10.850;2022-09-03T09:22:27;23.10;43.20
44863;DHT22;30597;49.628;10.850;2022-09-03T09:24:55;23.10;43.20
44863;DHT22;30597;49.628;10.850;2022-09-03T09:27:23;23.10;43.30
44863;DHT22;30597;49.628;10.850;2022-09-03T09:29:50;23.10;43.20
44863;DHT22;30597;49.628;10.850;2022-09-03T09:32:18;23.10;43.30
44863;DHT22;30597;49.628;10.850;2022-09-03T09:34:44;23.10;43.20
44863;DHT22;30597;49.628;10.850;2022-09-03T09:37:13;23.20;43.20
44863;DHT22;30597;49.628;10.850;2022-09-03T09:39:40;23.20;43.20
44863;DHT22;30597;49.628;10.850;2022-09-03T09:42:07;23.20;43.30
44863;DHT22;30597;49.628;10.850;2022-09-03T09:44:41;23.20;43.20
44863;DHT22;30597;49.628;10.850;2022-09-03T09:52:17;23.20;42.90
44863;DHT22;30597;49.628;10.850;2022-09-03T09:54:44;23.20;42.80
44863;DHT22;30597;49.628;10.850;2022-09-03T09:57:23;23.20;42.90
44863;DHT22;30597;49.628;10.850;2022-09-03T09:59:49;23.20;42.90
44863;DHT22;30597;49.628;10.850;2022-09-03T10:02:27;23.20;43.00
44863;DHT22;30597;49.628;10.850;2022-09-03T10:05:28;23.20;43.10
44863;DHT22;30597;49.628;10.850;2022-09-03T10:07:56;23.20;43.00
44863;DHT22;30597;49.628;10.850;2022-09-03T10:10:23;23.20;43.20
44863;DHT22;30597;49.628;10.850;2022-09-03T10:15:36;23.20;43.40
44863;DHT22;30597;49.628;10.850;2022-09-03T10:21:17;23.20;43.30
44863;DHT22;30597;49.628;10.850;2022-09-03T10:23:58;23.20;43.40
44863;DHT22;30597;49.628;10.850;2022-09-03T10:26:25;23.20;43.40
44863;DHT22;30597;49.628;10.850;2022-09-03T10:28:57;23.20;43.50
44863;DHT22;30597;49.628;10.850;2022-09-03T10:31:38;23.20;43.80
44863;DHT22;30597;49.628;10.850;2022-09-03T10:34:26;23.30;44.00
44863;DHT22;30597;49.628;10.850;2022-09-03T10:37:28;23.30;43.90
44863;DHT22;30597;49.628;10.850;2022-09-03T10:40:21;23.30;43.80
44863;DHT22;30597;49.628;10.850;2022-09-03T10:46:10;23.30;43.90
44863;DHT22;30597;49.628;10.850;2022-09-03T10:49:02;23.30;43.90
44863;DHT22;30597;49.628;10.850;2022-09-03T10:51:54;23.20;43.80
44863;DHT22;30597;49.628;10.850;2022-09-03T11:00:08;23.30;44.00
44863;DHT22;30597;49.628;10.850;2022-09-03T11:06:10;23.20;43.90
44863;DHT22;30597;49.628;10.850;2022-09-03T11:11:22;23.20;44.00
44863;DHT22;30597;49.628;10.850;2022-09-03T11:13:56;23.20;43.90
44863;DHT22;30597;49.628;10.850;2022-09-03T11:16:27;23.20;44.00
44863;DHT22;30597;49.628;10.850;2022-09-03T11:19:01;23.30;44.00
44863;DHT22;30597;49.628;10.850;2022-09-03T11:21:30;23.20;44.00
44863;DHT22;30597;49.628;10.850;2022-09-03T11:24:20;23.20;44.00
44863;DHT22;30597;49.628;10.850;2022-09-03T11:26:59;23.20;43.90
44863;DHT22;30597;49.628;10.850;2022-09-03T11:29:37;23.30;44.10
44863;DHT22;30597;49.628;10.850;2022-09-03T11:32:29;23.30;44.20
44863;DHT22;30597;49.628;10.850;2022-09-03T11:34:58;23.30;44.60
44863;DHT22;30597;49.628;10.850;2022-09-03T11:37:25;23.30;44.50
44863;DHT22;30597;49.628;10.850;2022-09-03T11:40:10;23.30;44.50
44863;DHT22;30597;49.628;10.850;2022-09-03T11:42:39;23.30;44.40
44863;DHT22;30597;49.628;10.850;2022-09-03T11:47:54;23.30;44.50
44863;DHT22;30597;49.628;10.850;2022-09-03T11:50:32;23.30;44.50
44863;DHT22;30597;49.628;10.850;2022-09-03T11:53:08;23.30;44.50
44863;DHT22;30597;49.628;10.850;2022-09-03T11:55:51;23.30;45.20
44863;DHT22;30597;49.628;10.850;2022-09-03T11:58:30;23.20;44.50
44863;DHT22;30597;49.628;10.850;2022-09-03T12:01:02;23.20;44.50
44863;DHT22;30597;49.628;10.850;2022-09-03T12:03:38;23.20;44.50
44863;DHT22;30597;49.628;10.850;2022-09-03T12:09:03;23.20;44.60
44863;DHT22;30597;49.628;10.850;2022-09-03T12:14:35;23.20;44.60
44863;DHT22;30597;49.628;10.850;2022-09-03T12:17:29;23.20;44.70
44863;DHT22;30597;49.628;10.850;2022-09-03T12:19:57;23.20;44.70
44863;DHT22;30597;49.628;10.850;2022-09-03T12:22:27;23.20;45.30
44863;DHT22;30597;49.628;10.850;2022-09-03T12:24:53;23.20;44.70
44863;DHT22;30597;49.628;10.850;2022-09-03T12:27:25;23.20;44.70
44863;DHT22;30597;49.628;10.850;2022-09-03T12:29:59;23.20;44.70
44863;DHT22;30597;49.628;10.850;2022-09-03T12:32:32;23.20;44.60
44863;DHT22;30597;49.628;10.850;2022-09-03T12:35:14;23.20;44.70
44863;DHT22;30597;49.628;10.850;2022-09-03T12:37:42;23.20;44.70
44863;DHT22;30597;49.628;10.850;2022-09-03T12:40:24;23.20;44.80
44863;DHT22;30597;49.628;10.850;2022-09-03T12:42:51;23.20;44.80
44863;DHT22;30597;49.628;10.850;2022-09-03T12:45:20;23.20;44.80
44863;DHT22;30597;49.628;10.850;2022-09-03T12:47:45;23.20;44.90
44863;DHT22;30597;49.628;10.850;2022-09-03T12:50:14;23.20;44.80
44863;DHT22;30597;49.628;10.850;2022-09-03T12:52:47;23.20;44.80
44863;DHT22;30597;49.628;10.850;2022-09-03T12:58:04;23.20;44.80
44863;DHT22;30597;49.628;10.850;2022-09-03T13:00:32;23.20;44.90
44863;DHT22;30597;49.628;10.850;2022-09-03T13:02:59;23.20;44.90
44863;DHT22;30597;49.628;10.850;2022-09-03T13:05:35;23.20;44.90
44863;DHT22;30597;49.628;10.850;2022-09-03T13:08:03;23.20;45.60
44863;DHT22;30597;49.628;10.850;2022-09-03T13:10:37;23.20;44.90
44863;DHT22;30597;49.628;10.850;2022-09-03T13:13:29;23.20;44.90
44863;DHT22;30597;49.628;10.850;2022-09-03T13:23:57;23.20;45.00
44863;DHT22;30597;49.628;10.850;2022-09-03T13:29:27;23.10;45.00
44863;DHT22;30597;49.628;10.850;2022-09-03T13:32:11;23.10;45.00
44863;DHT22;30597;49.628;10.850;2022-09-03T13:34:47;23.20;45.00
44863;DHT22;30597;49.628;10.850;2022-09-03T13:39:59;23.20;45.10
44863;DHT22;30597;49.628;10.850;2022-09-03T13:42:34;23.10;45.00
44863;DHT22;30597;49.628;10.850;2022-09-03T13:47:41;23.10;45.10
44863;DHT22;30597;49.628;10.850;2022-09-03T13:50:30;23.10;45.10
44863;DHT22;30597;49.628;10.850;2022-09-03T13:55:53;23.10;45.20
44863;DHT22;30597;49.628;10.850;2022-09-03T13:58:30;23.10;45.20
44863;DHT22;30597;49.628;10.850;2022-09-03T14:12:04;23.10;45.30
44863;DHT22;30597;49.628;10.850;2022-09-03T14:17:39;23.10;45.30
44863;DHT22;30597;49.628;10.850;2022-09-03T14:20:22;23.10;45.40
44863;DHT22;30597;49.628;10.850;2022-09-03T14:22:58;23.10;45.40
44863;DHT22;30597;49.628;10.850;2022-09-03T14:25:26;23.10;45.40
44863;DHT22;30597;49.628;10.850;2022-09-03T14:27:53;23.10;45.30
44863;DHT22;30597;49.628;10.850;2022-09-03T14:33:25;23.10;45.40
44863;DHT22;30597;49.628;10.850;2022-09-03T14:41:32;23.10;45.50
44863;DHT22;30597;49.628;10.850;2022-09-03T14:44:41;23.10;45.50
44863;DHT22;30597;49.628;10.850;2022-09-03T14:50:18;23.10;45.50
44863;DHT22;30597;49.628;10.850;2022-09-03T14:52:58;23.10;45.50
44863;DHT22;30597;49.628;10.850;2022-09-03T15:10:19;23.00;45.60
44863;DHT22;30597;49.628;10.850;2022-09-03T15:12:52;23.10;45.70
44863;DHT22;30597;49.628;10.850;2022-09-03T15:18:23;23.10;45.70
44863;DHT22;30597;49.628;10.850;2022-09-03T15:26:37;23.10;45.80
44863;DHT22;30597;49.628;10.850;2022-09-03T15:32:24;23.10;45.80
44863;DHT22;30597;49.628;10.850;2022-09-03T15:40:06;23.10;45.80
44863;DHT22;30597;49.628;10.850;2022-09-03T15:42:32;23.10;45.90
44863;DHT22;30597;49.628;10.850;2022-09-03T15:47:56;23.00;45.80
44863;DHT22;30597;49.628;10.850;2022-09-03T15:50:34;23.10;45.80
44863;DHT22;30597;49.628;10.850;2022-09-03T15:53:05;23.00;45.70
44863;DHT22;30597;49.628;10.850;2022-09-03T15:55:40;23.10;45.80
44863;DHT22;30597;49.628;10.850;2022-09-03T15:58:19;23.10;45.80
44863;DHT22;30597;49.628;10.850;2022-09-03T16:01:05;23.10;45.90
44863;DHT22;30597;49.628;10.850;2022-09-03T16:04:01;23.10;45.90
44863;DHT22;30597;49.628;10.850;2022-09-03T16:06:51;23.10;46.00
44863;DHT22;30597;49.628;10.850;2022-09-03T16:15:35;23.10;46.00
44863;DHT22;30597;49.628;10.850;2022-09-03T16:20:45;23.00;46.00
44863;DHT22;30597;49.628;10.850;2022-09-03T16:26:33;23.00;46.00
44863;DHT22;30597;49.628;10.850;2022-09-03T16:29:11;23.10;46.00
44863;DHT22;30597;49.628;10.850;2022-09-03T16:34:22;23.10;45.90
44863;DHT22;30597;49.628;10.850;2022-09-03T16:37:00;23.20;46.00
44863;DHT22;30597;49.628;10.850;2022-09-03T16:45:08;23.30;45.90
44863;DHT22;30597;49.628;10.850;2022-09-03T16:53:14;23.30;45.90
44863;DHT22;30597;49.628;10.850;2022-09-03T17:01:37;23.30;46.30
44863;DHT22;30597;49.628;10.850;2022-09-03T17:11:02;23.40;48.10
44863;DHT22;30597;49.628;10.850;2022-09-03T17:18:49;23.50;48.80
44863;DHT22;30597;49.628;10.850;2022-09-03T17:24:31;23.60;49.00
44863;DHT22;30597;49.628;10.850;2022-09-03T17:30:18;23.60;49.20
44863;DHT22;30597;49.628;10.850;2022-09-03T17:41:13;23.60;48.80
44863;DHT22;30597;49.628;10.850;2022-09-03T17:43:49;23.60;48.70
44863;DHT22;30597;49.628;10.850;2022-09-03T17:49:24;23.60;49.10
44863;DHT22;30597;49.628;10.850;2022-09-03T17:54:46;23.50;49.40
44863;DHT22;30597;49.628;10.850;2022-09-03T18:02:22;23.60;49.90
44863;DHT22;30597;49.628;10.850;2022-09-03T18:04:55;23.60;49.90
44863;DHT22;30597;49.628;10.850;2022-09-03T18:07:43;23.60;50.00
44863;DHT22;30597;49.628;10.850;2022-09-03T18:10:26;23.60;50.20
44863;DHT22;30597;49.628;10.850;2022-09-03T18:18:29;23.60;50.20
44863;DHT22;30597;49.628;10.850;2022-09-03T18:20:59;23.60;50.20
44863;DHT22;30597;49.628;10.850;2022-09-03T18:23:53;23.60;50.20
44863;DHT22;30597;49.628;10.850;2022-09-03T18:26:45;23.60;50.10
44863;DHT22;30597;49.628;10.850;2022-09-03T18:29:35;23.50;50.00
44863;DHT22;30597;49.628;10.850;2022-09-03T18:32:20;23.50;50.00
44863;DHT22;30597;49.628;10.850;2022-09-03T18:35:07;23.50;50.00
44863;DHT22;30597;49.628;10.850;2022-09-03T18:37:51;23.50;50.00
44863;DHT22;30597;49.628;10.850;2022-09-03T18:40:55;23.50;50.00
44863;DHT22;30597;49.628;10.850;2022-09-03T18:44:01;23.40;49.80
44863;DHT22;30597;49.628;10.850;2022-09-03T18:47:17;23.40;49.80
44863;DHT22;30597;49.628;10.850;2022-09-03T18:51:05;23.40;50.00
44863;DHT22;30597;49.628;10.850;2022-09-03T18:56:52;23.40;50.40
44863;DHT22;30597;49.628;10.850;2022-09-03T19:02:39;23.50;50.70
44863;DHT22;30597;49.628;10.850;2022-09-03T19:08:43;23.50;50.90
44863;DHT22;30597;49.628;10.850;2022-09-03T19:14:32;23.50;51.10
44863;DHT22;30597;49.628;10.850;2022-09-03T19:20:31;23.50;51.20
44863;DHT22;30597;49.628;10.850;2022-09-03T19:23:18;23.50;51.20
44863;DHT22;30597;49.628;10.850;2022-09-03T19:26:25;23.50;51.30
44863;DHT22;30597;49.628;10.850;2022-09-03T19:29:38;23.60;51.30
44863;DHT22;30597;49.628;10.850;2022-09-03T19:32:45;23.60;51.40
44863;DHT22;30597;49.628;10.850;2022-09-03T19:35:47;23.50;51.30
44863;DHT22;30597;49.628;10.850;2022-09-03T19:39:01;23.50;52.00
44863;DHT22;30597;49.628;10.850;2022-09-03T19:42:16;23.40;51.70
44863;DHT22;30597;49.628;10.850;2022-09-03T19:45:11;23.40;51.70
44863;DHT22;30597;49.628;10.850;2022-09-03T19:51:15;23.60;51.70
44863;DHT22;30597;49.628;10.850;2022-09-03T19:54:03;23.60;51.70
44863;DHT22;30597;49.628;10.850;2022-09-03T19:56:48;23.60;51.60
44863;DHT22;30597;49.628;10.850;2022-09-03T19:59:38;23.60;51.60
44863;DHT22;30597;49.628;10.850;2022-09-03T20:02:23;23.60;51.50
44863;DHT22;30597;49.628;10.850;2022-09-03T20:05:16;23.60;51.40
44863;DHT22;30597;49.628;10.850;2022-09-03T20:08:01;23.60;51.30
44863;DHT22;30597;49.628;10.850;2022-09-03T20:10:49;23.60;51.30
44863;DHT22;30597;49.628;10.850;2022-09-03T20:13:18;23.60;51.20
44863;DHT22;30597;49.628;10.850;2022-09-03T20:21:48;23.70;51.10